[CLOSED] PG ATC @KEGE Denver

Open for the next 20 Minutes or so :)

  • Winds from East 80 degrees at 4 knots
  • Visibility 10 miles or more
  • Runway 25 in use
  • Patterns allowed

KEGE 020635Z AUTO 08004KT 10SM CLR M23/M25 A3050 RMK AO1